Time;durP1;ratioP1;P1;durP2;ratioP2;P2;SDS_P1;SDS_P2;PMS_P1;PMS_P2;Temp;Humidity;BMP_temperature;BMP_pressure;BME280_temperature;BME280_humidity;BME280_pressure;Samples;Min_cycle;Max_cycle;Signal;HPM_P1;HPM_P2
2023/04/04 00:01:33;;;;;;;8.68;3.63;;;12.50;64.40;;;;;;7387394;19;20025;-74
2023/04/04 00:04:02;;;;;;;9.20;3.70;;;12.50;63.90;;;;;;7403155;19;20019;-75
2023/04/04 00:06:33;;;;;;;8.38;3.80;;;12.40;63.90;;;;;;7380902;19;20006;-74
2023/04/04 00:09:02;;;;;;;10.68;3.30;;;12.40;64.00;;;;;;7380539;19;20003;-75
2023/04/04 00:11:31;;;;;;;9.45;3.25;;;12.40;64.30;;;;;;7381212;19;20007;-75
2023/04/04 00:14:00;;;;;;;6.97;3.17;;;12.40;64.10;;;;;;7380393;19;20006;-75
2023/04/04 00:16:29;;;;;;;8.57;3.92;;;12.30;63.90;;;;;;7402505;19;20002;-75
2023/04/04 00:18:57;;;;;;;8.10;3.40;;;12.40;63.60;;;;;;7380222;19;20007;-74
2023/04/04 00:21:26;;;;;;;11.77;2.92;;;12.30;63.60;;;;;;7379879;19;20006;-75
2023/04/04 00:24:00;;;;;;;7.53;3.22;;;12.40;63.60;;;;;;7380440;19;19999;-75
2023/04/04 00:26:29;;;;;;;13.63;3.33;;;12.30;63.30;;;;;;7380198;19;20011;-74
2023/04/04 00:28:58;;;;;;;7.90;2.80;;;12.30;63.00;;;;;;7381598;19;20012;-75
2023/04/04 00:31:28;;;;;;;8.32;2.90;;;12.30;63.00;;;;;;7401765;19;20369;-76
2023/04/04 00:33:56;;;;;;;5.15;2.97;;;12.30;62.90;;;;;;7379024;19;20019;-75
2023/04/04 00:36:25;;;;;;;7.13;2.78;;;12.30;63.60;;;;;;7377981;19;20028;-74
2023/04/04 00:38:54;;;;;;;6.22;2.97;;;12.20;62.60;;;;;;7379994;19;20009;-75
2023/04/04 00:41:26;;;;;;;7.60;2.53;;;12.20;62.30;;;;;;7380094;19;20010;-74
2023/04/04 00:43:55;;;;;;;8.48;2.95;;;12.20;62.30;;;;;;7377871;19;20030;-75
2023/04/04 00:46:25;;;;;;;6.72;3.05;;;12.20;62.40;;;;;;7401363;19;20035;-75
2023/04/04 00:48:56;;;;;;;8.63;3.08;;;12.20;62.20;;;;;;7378541;19;20003;-75
2023/04/04 00:51:25;;;;;;;8.73;2.90;;;12.10;61.90;;;;;;7379375;19;20034;-75
2023/04/04 00:53:54;;;;;;;8.93;2.92;;;12.10;62.40;;;;;;7377901;19;20393;-74
2023/04/04 00:56:26;;;;;;;7.45;2.88;;;12.10;62.40;;;;;;7378795;19;19999;-75
2023/04/04 00:58:56;;;;;;;5.55;2.55;;;12.10;62.50;;;;;;7378179;19;20248;-75
2023/04/04 01:01:25;;;;;;;7.22;2.58;;;12.00;62.40;;;;;;7400482;19;20006;-75
2023/04/04 01:03:54;;;;;;;6.53;3.08;;;12.00;62.30;;;;;;7378216;19;20007;-75
2023/04/04 01:06:23;;;;;;;5.57;2.80;;;12.00;62.30;;;;;;7377826;19;20629;-75
2023/04/04 01:08:54;;;;;;;8.45;2.97;;;12.00;62.00;;;;;;7381190;19;20026;-75
2023/04/04 01:11:25;;;;;;;7.70;2.80;;;12.00;62.40;;;;;;7384244;19;20006;-75
2023/04/04 01:13:54;;;;;;;7.32;2.65;;;11.90;62.20;;;;;;7383339;19;20223;-75
2023/04/04 01:16:23;;;;;;;10.30;2.65;;;11.90;62.00;;;;;;7403392;19;20011;-75
2023/04/04 01:18:55;;;;;;;6.07;2.80;;;11.90;62.00;;;;;;7379681;19;20006;-75
2023/04/04 01:21:25;;;;;;;5.63;2.53;;;11.90;62.00;;;;;;7377824;19;20007;-76
2023/04/04 01:24:01;;;;;;;4.75;2.55;;;11.90;62.00;;;;;;7378542;19;20011;-75
2023/04/04 01:26:33;;;;;;;6.50;2.72;;;11.90;62.40;;;;;;7381192;19;20006;-75
2023/04/04 01:29:02;;;;;;;8.48;3.50;;;11.90;62.30;;;;;;7386565;19;20365;-75
2023/04/04 01:31:37;;;;;;;6.35;3.22;;;11.90;62.60;;;;;;7404389;19;20011;-75
2023/04/04 01:34:13;;;;;;;7.00;2.67;;;11.90;62.70;;;;;;7385059;19;20014;-74
2023/04/04 01:36:52;;;;;;;8.02;2.78;;;11.80;62.60;;;;;;7382952;19;20365;-75
2023/04/04 01:39:26;;;;;;;5.60;2.80;;;11.80;62.50;;;;;;7385354;19;20011;-75
2023/04/04 01:41:59;;;;;;;8.20;2.60;;;11.70;62.60;;;;;;7385687;19;20006;-74
2023/04/04 01:44:28;;;;;;;5.75;3.13;;;11.70;63.40;;;;;;7383710;19;20002;-75
2023/04/04 01:46:57;;;;;;;6.90;2.25;;;11.70;63.90;;;;;;7385291;19;20303;-75
2023/04/04 01:49:26;;;;;;;6.55;2.70;;;11.60;63.60;;;;;;7406906;19;20007;-75
2023/04/04 01:51:56;;;;;;;6.57;2.92;;;11.60;63.10;;;;;;7384820;19;20030;-75
2023/04/04 01:54:27;;;;;;;5.53;3.05;;;11.60;63.30;;;;;;7383863;19;20071;-74
2023/04/04 01:56:58;;;;;;;5.32;2.60;;;11.50;62.70;;;;;;7385194;19;20003;-75
2023/04/04 01:59:27;;;;;;;4.10;2.15;;;11.50;62.80;;;;;;7383835;19;19999;-74
2023/04/04 02:01:56;;;;;;;6.82;2.80;;;11.50;63.20;;;;;;7384568;19;20223;-74
2023/04/04 02:04:25;;;;;;;8.20;2.55;;;11.50;64.10;;;;;;7406377;19;20010;-74
2023/04/04 02:06:55;;;;;;;5.60;2.63;;;11.50;63.00;;;;;;7383763;19;20010;-74
2023/04/04 02:09:24;;;;;;;7.07;2.90;;;11.50;63.00;;;;;;7383943;19;20018;-74
2023/04/04 02:11:53;;;;;;;6.63;3.17;;;11.50;62.80;;;;;;7384476;19;20423;-75
2023/04/04 02:14:24;;;;;;;8.30;2.75;;;11.50;63.10;;;;;;7383150;19;20010;-75
2023/04/04 02:16:53;;;;;;;4.32;2.47;;;11.40;63.40;;;;;;7384837;19;20031;-74
2023/04/04 02:19:23;;;;;;;7.18;3.08;;;11.40;63.10;;;;;;7406001;19;20009;-75
2023/04/04 02:21:51;;;;;;;9.70;2.65;;;11.40;63.40;;;;;;7383313;19;20006;-75
2023/04/04 02:24:20;;;;;;;5.55;2.20;;;11.40;63.50;;;;;;7383517;19;20016;-74
2023/04/04 02:26:49;;;;;;;7.22;2.58;;;11.40;64.40;;;;;;7382475;19;20010;-74
2023/04/04 02:29:18;;;;;;;6.28;2.75;;;11.40;63.60;;;;;;7383749;19;20079;-75
2023/04/04 02:31:49;;;;;;;6.53;2.90;;;11.40;63.80;;;;;;7384096;19;20267;-74
2023/04/04 02:34:18;;;;;;;4.72;2.78;;;11.30;64.00;;;;;;7405373;19;20010;-75
2023/04/04 02:36:47;;;;;;;7.03;2.65;;;11.30;64.30;;;;;;7380962;19;20028;-74
2023/04/04 02:39:16;;;;;;;5.50;2.85;;;11.30;64.10;;;;;;7381208;19;20396;-74
2023/04/04 02:41:45;;;;;;;8.50;3.03;;;11.20;63.60;;;;;;7385205;19;20008;-74
2023/04/04 02:44:14;;;;;;;5.57;2.75;;;11.20;63.70;;;;;;7385711;19;20728;-75
2023/04/04 02:46:43;;;;;;;4.22;2.70;;;11.20;63.60;;;;;;7384332;19;20354;-75
2023/04/04 02:49:14;;;;;;;10.88;2.90;;;11.20;63.60;;;;;;7406480;19;20010;-75
2023/04/04 02:51:43;;;;;;;10.75;2.45;;;11.10;63.50;;;;;;7384840;19;20524;-75
2023/04/04 02:54:12;;;;;;;5.97;2.80;;;11.10;63.50;;;;;;7384779;19;20381;-75
2023/04/04 02:56:41;;;;;;;7.30;2.97;;;11.10;63.50;;;;;;7385484;19;20365;-74
2023/04/04 02:59:09;;;;;;;5.63;2.70;;;11.10;63.70;;;;;;7383024;19;19998;-74
2023/04/04 03:01:38;;;;;;;6.40;3.10;;;11.10;63.20;;;;;;7382892;19;20006;-74
2023/04/04 03:04:07;;;;;;;7.63;2.80;;;11.10;62.80;;;;;;7402103;19;20003;-74
2023/04/04 03:06:39;;;;;;;8.07;2.83;;;11.10;63.00;;;;;;7382022;19;20014;-74
2023/04/04 03:09:08;;;;;;;5.32;2.80;;;11.10;63.00;;;;;;7382573;19;20007;-74
2023/04/04 03:11:36;;;;;;;10.05;3.05;;;11.10;63.50;;;;;;7382615;19;20006;-74
2023/04/04 03:14:06;;;;;;;6.05;2.83;;;11.10;64.20;;;;;;7380481;19;20322;-74
2023/04/04 03:16:35;;;;;;;6.82;2.97;;;11.00;64.40;;;;;;7380410;19;20007;-74
2023/04/04 03:19:03;;;;;;;6.95;3.20;;;11.00;64.20;;;;;;7403607;19;20070;-74
2023/04/04 03:21:32;;;;;;;8.70;3.15;;;11.00;64.10;;;;;;7382356;19;20372;-74
2023/04/04 03:24:03;;;;;;;6.18;3.10;;;11.00;64.20;;;;;;7382195;19;20062;-75
2023/04/04 03:26:32;;;;;;;7.63;3.15;;;10.90;64.20;;;;;;7382362;19;20232;-74
2023/04/04 03:29:03;;;;;;;7.88;2.92;;;10.90;63.80;;;;;;7382162;19;20074;-74
2023/04/04 03:31:32;;;;;;;6.53;2.90;;;10.90;63.70;;;;;;7393568;19;20010;-74
2023/04/04 03:34:03;;;;;;;9.00;2.72;;;10.90;63.80;;;;;;7403011;19;20014;-74
2023/04/04 03:36:32;;;;;;;5.57;2.67;;;10.80;63.70;;;;;;7379291;19;20010;-74
2023/04/04 03:39:03;;;;;;;6.88;3.15;;;10.80;63.70;;;;;;7381973;19;20003;-74
2023/04/04 03:41:32;;;;;;;6.53;2.63;;;10.80;64.10;;;;;;7382089;19;20007;-74
2023/04/04 03:44:00;;;;;;;11.00;3.47;;;10.80;64.00;;;;;;7380223;19;20032;-75
2023/04/04 03:46:29;;;;;;;7.95;3.13;;;10.70;64.20;;;;;;7401520;19;20010;-75
2023/04/04 03:48:58;;;;;;;9.43;3.13;;;10.70;64.40;;;;;;7380220;19;20066;-75
2023/04/04 03:51:27;;;;;;;8.35;2.90;;;10.70;64.20;;;;;;7381389;19;20090;-75
2023/04/04 03:53:56;;;;;;;6.97;2.63;;;10.60;64.30;;;;;;7381866;19;20007;-75
2023/04/04 03:56:27;;;;;;;6.88;3.15;;;10.60;64.60;;;;;;7381153;19;20007;-75
2023/04/04 03:58:57;;;;;;;5.50;3.13;;;10.60;64.40;;;;;;7382125;19;20006;-74
2023/04/04 04:01:26;;;;;;;9.70;3.08;;;10.60;64.20;;;;;;7403743;19;20368;-75
2023/04/04 04:03:54;;;;;;;12.63;3.58;;;10.60;64.10;;;;;;7380242;19;20003;-74
2023/04/04 04:06:23;;;;;;;8.02;2.67;;;10.60;64.00;;;;;;7380196;19;20476;-74
2023/04/04 04:08:52;;;;;;;7.43;3.08;;;10.60;64.40;;;;;;7380459;19;20003;-74
2023/04/04 04:11:21;;;;;;;11.35;2.95;;;10.60;64.30;;;;;;7379394;19;20019;-74
2023/04/04 04:13:52;;;;;;;3.72;2.55;;;10.50;64.70;;;;;;7380925;19;20019;-74
2023/04/04 04:16:21;;;;;;;5.88;2.83;;;10.50;64.60;;;;;;7401431;19;20373;-74
2023/04/04 04:18:49;;;;;;;10.95;3.15;;;10.50;64.90;;;;;;7381527;19;20003;-74
2023/04/04 04:21:18;;;;;;;8.00;3.15;;;10.50;64.80;;;;;;7382751;19;20003;-74
2023/04/04 04:23:47;;;;;;;5.82;3.10;;;10.50;64.90;;;;;;7382062;19;20381;-74
2023/04/04 04:26:15;;;;;;;7.50;3.05;;;10.40;64.70;;;;;;7382564;19;20385;-74
2023/04/04 04:28:44;;;;;;;12.43;3.05;;;10.40;64.80;;;;;;7381994;19;20007;-75
2023/04/04 04:31:16;;;;;;;6.30;3.03;;;10.40;65.10;;;;;;7400892;19;20020;-75
2023/04/04 04:33:44;;;;;;;10.18;3.28;;;10.40;65.10;;;;;;7380425;19;20002;-75
2023/04/04 04:36:14;;;;;;;5.80;2.83;;;10.40;64.70;;;;;;7378957;19;20002;-75
2023/04/04 04:38:43;;;;;;;14.85;3.17;;;10.30;64.80;;;;;;7380364;19;20003;-75
2023/04/04 04:41:11;;;;;;;8.55;2.90;;;10.30;64.80;;;;;;7379709;19;20010;-75
2023/04/04 04:43:40;;;;;;;10.50;3.67;;;10.30;64.80;;;;;;7377473;19;20019;-75
2023/04/04 04:46:09;;;;;;;7.85;2.80;;;10.30;64.70;;;;;;7401165;19;20024;-75
2023/04/04 04:48:40;;;;;;;7.15;2.67;;;10.30;64.40;;;;;;7378586;19;20348;-75
2023/04/04 04:51:09;;;;;;;10.73;2.83;;;10.30;64.60;;;;;;7378768;19;20003;-75
2023/04/04 04:53:38;;;;;;;5.18;2.60;;;10.30;64.70;;;;;;7379363;19;20030;-75
2023/04/04 04:56:07;;;;;;;6.45;2.90;;;10.30;64.70;;;;;;7378961;19;20007;-75
2023/04/04 04:58:36;;;;;;;14.27;3.50;;;10.30;64.30;;;;;;7381422;19;20011;-75
2023/04/04 05:01:05;;;;;;;6.82;2.72;;;10.20;64.30;;;;;;7399191;19;20309;-75
2023/04/04 05:03:33;;;;;;;9.55;3.10;;;10.20;64.30;;;;;;7378557;19;20003;-75
2023/04/04 05:06:05;;;;;;;8.05;2.83;;;10.20;63.70;;;;;;7379173;19;20006;-74
2023/04/04 05:08:34;;;;;;;8.80;3.08;;;10.10;63.80;;;;;;7379281;19;20003;-75
2023/04/04 05:14:14;;;;;;;5.90;2.60;;;10.10;64.10;;;;;;7402881;19;20272;-74
2023/04/04 05:16:42;;;;;;;10.73;3.33;;;10.10;63.90;;;;;;7363345;19;20027;-75
2023/04/04 05:19:11;;;;;;;7.30;3.30;;;10.10;64.60;;;;;;7379518;19;20010;-75
2023/04/04 05:21:42;;;;;;;4.38;2.53;;;10.10;63.70;;;;;;7380805;19;20032;-75
2023/04/04 05:24:11;;;;;;;7.20;2.53;;;10.10;64.00;;;;;;7402666;19;20003;-74
2023/04/04 05:26:41;;;;;;;10.75;2.75;;;10.10;64.00;;;;;;7379855;19;20003;-74
2023/04/04 05:29:09;;;;;;;7.35;2.90;;;10.10;63.90;;;;;;7380047;19;20006;-74
2023/04/04 05:31:38;;;;;;;8.10;2.72;;;10.10;64.30;;;;;;7380608;19;20326;-74
2023/04/04 05:34:08;;;;;;;9.15;2.97;;;10.10;63.90;;;;;;7381423;19;20006;-75
2023/04/04 05:36:37;;;;;;;5.93;2.65;;;10.10;64.00;;;;;;7378305;19;20070;-74
2023/04/04 05:39:08;;;;;;;10.00;2.67;;;10.10;63.90;;;;;;7402126;19;20011;-75
2023/04/04 05:41:37;;;;;;;11.32;3.30;;;10.10;63.80;;;;;;7379424;19;20298;-74
2023/04/04 05:44:06;;;;;;;7.65;2.90;;;10.20;63.80;;;;;;7379889;19;20003;-75
2023/04/04 05:46:35;;;;;;;7.40;2.70;;;10.20;63.80;;;;;;7379548;19;20020;-75
2023/04/04 05:49:03;;;;;;;13.65;2.85;;;10.20;63.80;;;;;;7380479;19;20031;-76
2023/04/04 05:51:32;;;;;;;8.68;2.40;;;10.10;63.60;;;;;;7379981;19;20295;-75
2023/04/04 05:54:01;;;;;;;9.25;2.95;;;10.20;63.70;;;;;;7402362;19;20031;-76
2023/04/04 05:56:32;;;;;;;10.40;2.60;;;10.10;63.60;;;;;;7381076;19;20002;-76
2023/04/04 05:59:01;;;;;;;6.50;2.80;;;10.10;64.10;;;;;;7386249;19;20002;-76
2023/04/04 06:01:30;;;;;;;9.73;3.22;;;10.10;63.70;;;;;;7381988;19;20006;-75
2023/04/04 06:03:59;;;;;;;12.07;2.90;;;10.10;63.70;;;;;;7380491;19;20038;-75
2023/04/04 06:06:28;;;;;;;8.57;2.70;;;10.20;63.70;;;;;;7379552;19;20003;-74
2023/04/04 06:08:57;;;;;;;6.15;3.17;;;10.20;63.70;;;;;;7400630;19;20010;-75
2023/04/04 06:11:26;;;;;;;6.40;2.83;;;10.20;63.30;;;;;;7379038;19;20002;-74
2023/04/04 06:13:57;;;;;;;7.82;3.47;;;10.20;63.70;;;;;;7385990;19;20025;-74
2023/04/04 06:16:26;;;;;;;9.68;3.60;;;10.20;63.70;;;;;;7385551;19;20365;-74
2023/04/04 06:18:55;;;;;;;5.32;2.88;;;10.20;63.70;;;;;;7386072;19;20009;-74
2023/04/04 06:21:23;;;;;;;10.77;2.47;;;10.20;63.40;;;;;;7411933;19;20010;-74
2023/04/04 06:23:52;;;;;;;10.23;3.25;;;10.30;63.30;;;;;;7386189;19;20361;-74
2023/04/04 06:26:21;;;;;;;6.10;2.90;;;10.30;63.20;;;;;;7385898;19;20007;-74
2023/04/04 06:28:50;;;;;;;5.53;3.03;;;10.30;63.40;;;;;;7386015;19;20014;-74
2023/04/04 06:31:21;;;;;;;17.77;3.15;;;10.30;63.50;;;;;;7385060;19;19999;-74
2023/04/04 06:33:50;;;;;;;11.15;3.20;;;10.40;63.50;;;;;;7386304;19;20023;-75
2023/04/04 06:36:19;;;;;;;10.10;2.95;;;10.40;63.40;;;;;;7406011;19;20010;-73
2023/04/04 06:38:48;;;;;;;7.35;2.83;;;10.40;63.00;;;;;;7385484;19;20014;-74
2023/04/04 06:41:17;;;;;;;12.38;3.17;;;10.40;62.70;;;;;;7385625;19;20007;-74
2023/04/04 06:43:47;;;;;;;12.02;3.22;;;10.40;63.00;;;;;;7385622;19;20079;-74
2023/04/04 06:46:16;;;;;;;11.07;2.95;;;10.50;63.00;;;;;;7384535;19;20006;-74
2023/04/04 06:48:47;;;;;;;7.55;2.80;;;10.50;62.60;;;;;;7385836;19;20007;-75
2023/04/04 06:51:16;;;;;;;11.05;3.35;;;10.50;62.20;;;;;;7407209;19;20018;-75
2023/04/04 06:53:45;;;;;;;7.38;2.95;;;10.50;62.20;;;;;;7385050;19;20011;-74
2023/04/04 06:56:13;;;;;;;12.25;2.95;;;10.60;62.00;;;;;;7384274;19;20011;-75
2023/04/04 06:58:42;;;;;;;7.40;3.20;;;10.50;61.90;;;;;;7385110;19;20003;-74
2023/04/04 07:01:11;;;;;;;7.30;2.90;;;10.60;62.00;;;;;;7385494;19;20003;-74
2023/04/04 07:03:39;;;;;;;10.52;2.92;;;10.60;62.10;;;;;;7406512;19;20011;-73
2023/04/04 07:06:11;;;;;;;8.43;3.22;;;10.60;61.60;;;;;;7366588;19;20345;-74
2023/04/04 07:08:39;;;;;;;6.85;2.83;;;10.60;61.70;;;;;;7384947;19;20249;-75
2023/04/04 07:11:08;;;;;;;8.27;2.88;;;10.70;61.60;;;;;;7406874;19;20007;-75
2023/04/04 07:13:37;;;;;;;5.18;2.90;;;10.70;61.70;;;;;;7387396;19;20006;-73
2023/04/04 07:16:06;;;;;;;4.95;2.72;;;10.70;61.30;;;;;;7385433;19;20284;-73
2023/04/04 07:18:35;;;;;;;9.65;3.30;;;10.80;61.30;;;;;;7385444;19;20020;-72
2023/04/04 07:21:04;;;;;;;7.18;3.00;;;10.80;61.30;;;;;;7385406;19;20006;-73
2023/04/04 07:23:35;;;;;;;9.68;3.08;;;10.80;61.50;;;;;;7384019;19;20006;-73
2023/04/04 07:26:04;;;;;;;5.93;2.78;;;10.90;61.10;;;;;;7403298;19;20376;-73
2023/04/04 07:28:33;;;;;;;10.07;3.15;;;10.90;61.30;;;;;;7383382;19;20007;-73
2023/04/04 07:31:02;;;;;;;7.82;3.13;;;10.90;61.00;;;;;;7383638;19;20010;-72
2023/04/04 07:33:31;;;;;;;7.93;3.00;;;10.90;60.30;;;;;;7383989;19;20253;-74
2023/04/04 07:35:59;;;;;;;7.03;3.10;;;10.90;59.70;;;;;;7383140;19;20019;-73
2023/04/04 07:38:28;;;;;;;7.95;3.33;;;11.00;59.90;;;;;;7383466;19;20003;-74
2023/04/04 07:41:00;;;;;;;6.72;2.88;;;11.00;60.20;;;;;;7404820;19;20468;-74
2023/04/04 07:43:28;;;;;;;10.40;3.38;;;11.10;60.20;;;;;;7382615;19;20010;-74
2023/04/04 07:45:57;;;;;;;13.10;2.97;;;11.10;59.70;;;;;;7383345;19;20002;-73
2023/04/04 07:48:26;;;;;;;6.47;3.00;;;11.10;59.30;;;;;;7384085;19;20006;-73
2023/04/04 07:50:55;;;;;;;7.72;3.10;;;11.20;59.80;;;;;;7383561;19;20002;-74
2023/04/04 07:53:24;;;;;;;5.50;2.47;;;11.20;58.60;;;;;;7404701;19;20002;-74
2023/04/04 07:55:52;;;;;;;9.07;3.08;;;11.20;58.60;;;;;;7383281;19;20233;-73
2023/04/04 07:58:24;;;;;;;8.43;3.15;;;11.20;58.80;;;;;;7382541;19;20400;-74
2023/04/04 08:00:52;;;;;;;4.72;2.58;;;11.20;58.80;;;;;;7382896;19;20232;-75
2023/04/04 08:03:22;;;;;;;6.07;3.03;;;11.20;58.40;;;;;;7382141;19;20010;-73
2023/04/04 08:05:51;;;;;;;9.27;3.22;;;11.20;58.70;;;;;;7383152;19;20006;-76
2023/04/04 08:08:20;;;;;;;8.10;3.22;;;11.30;58.80;;;;;;7402023;19;20014;-76
2023/04/04 08:10:48;;;;;;;7.53;3.10;;;11.40;58.80;;;;;;7382332;19;20019;-75
2023/04/04 08:13:17;;;;;;;8.23;3.00;;;11.40;58.80;;;;;;7382929;19;20002;-75
2023/04/04 08:15:48;;;;;;;6.43;2.85;;;11.50;58.30;;;;;;7383258;19;20010;-76
2023/04/04 08:18:17;;;;;;;5.97;2.80;;;11.50;58.20;;;;;;7383150;19;20011;-77
2023/04/04 08:20:46;;;;;;;7.05;2.97;;;11.50;58.00;;;;;;7381484;19;19994;-75
2023/04/04 08:23:34;;;;;;;9.90;2.80;;;11.50;58.00;;;;;;7408788;19;20010;-82
2023/04/04 08:26:03;;;;;;;5.70;2.50;;;11.50;58.20;;;;;;7386203;19;20069;-76
2023/04/04 08:28:33;;;;;;;6.13;2.72;;;11.50;57.60;;;;;;7383430;19;20003;-76
2023/04/04 08:31:05;;;;;;;5.20;2.95;;;11.60;57.80;;;;;;7382112;19;20366;-74
2023/04/04 08:33:33;;;;;;;9.80;2.90;;;11.70;57.60;;;;;;7381588;19;20006;-74
2023/04/04 08:36:03;;;;;;;8.75;2.70;;;11.70;57.40;;;;;;7381708;19;20002;-75
2023/04/04 08:38:32;;;;;;;11.32;3.90;;;11.70;57.50;;;;;;7380529;19;20003;-76
2023/04/04 08:41:01;;;;;;;5.53;3.10;;;11.60;57.10;;;;;;7404397;19;20010;-76
2023/04/04 08:43:30;;;;;;;10.90;3.67;;;11.60;56.70;;;;;;7381753;19;20398;-75
2023/04/04 08:45:59;;;;;;;10.75;3.08;;;11.70;57.00;;;;;;7381166;19;20386;-74
2023/04/04 08:48:32;;;;;;;5.50;3.08;;;11.80;56.70;;;;;;7382152;19;20056;-74
2023/04/04 08:51:02;;;;;;;11.70;3.17;;;11.80;57.10;;;;;;7382188;19;20085;-77
2023/04/04 08:53:33;;;;;;;7.70;2.60;;;11.80;56.80;;;;;;7381575;19;20071;-73
2023/04/04 08:56:02;;;;;;;8.98;3.50;;;11.80;56.90;;;;;;7402845;19;20255;-72
2023/04/04 08:58:30;;;;;;;12.88;2.90;;;11.90;56.60;;;;;;7380859;19;20430;-76
2023/04/04 09:00:59;;;;;;;9.25;3.20;;;11.90;56.60;;;;;;7380758;19;20094;-73
2023/04/04 09:03:33;;;;;;;5.35;2.85;;;11.90;56.70;;;;;;7381615;19;20040;-76
2023/04/04 09:06:02;;;;;;;10.18;3.65;;;11.90;56.80;;;;;;7380507;19;20396;-72
2023/04/04 09:08:32;;;;;;;7.63;3.10;;;11.90;56.40;;;;;;7380764;19;20007;-72
2023/04/04 09:11:04;;;;;;;4.68;2.88;;;11.80;55.10;;;;;;7400953;19;20014;-74
2023/04/04 09:13:35;;;;;;;8.15;3.35;;;11.80;55.60;;;;;;7381295;19;20015;-74
2023/04/04 09:16:04;;;;;;;9.88;3.28;;;11.90;56.20;;;;;;7380712;19;20369;-75
2023/04/04 09:18:36;;;;;;;7.45;3.33;;;11.90;56.80;;;;;;7379771;19;20281;-74
2023/04/04 09:21:11;;;;;;;14.65;3.80;;;11.90;56.50;;;;;;7381318;19;20405;-75
2023/04/04 09:23:40;;;;;;;11.55;3.42;;;11.80;56.60;;;;;;7381076;19;20015;-75
2023/04/04 09:26:08;;;;;;;11.80;3.53;;;11.90;56.30;;;;;;7403492;19;20379;-75
2023/04/04 09:28:37;;;;;;;9.30;3.28;;;12.00;56.50;;;;;;7381642;19;20300;-74
2023/04/04 09:31:10;;;;;;;5.75;3.05;;;11.90;56.10;;;;;;7381252;19;20019;-75
2023/04/04 09:33:42;;;;;;;10.32;3.17;;;11.90;55.90;;;;;;7380722;19;20030;-75
2023/04/04 09:36:13;;;;;;;11.85;3.50;;;11.90;56.10;;;;;;7380595;19;20011;-74
2023/04/04 09:38:44;;;;;;;9.50;3.08;;;12.00;56.60;;;;;;7379023;19;20027;-74
2023/04/04 09:41:15;;;;;;;9.30;3.30;;;12.00;56.20;;;;;;7400182;19;20011;-72
2023/04/04 09:43:47;;;;;;;8.80;3.22;;;11.50;55.40;;;;;;7380309;19;20016;-74
2023/04/04 09:46:17;;;;;;;8.18;3.55;;;11.50;55.50;;;;;;7379987;19;20397;-73
2023/04/04 09:48:51;;;;;;;8.85;3.55;;;11.60;56.40;;;;;;7386008;19;20066;-73
2023/04/04 09:51:20;;;;;;;8.65;3.83;;;11.60;56.40;;;;;;7385153;19;19999;-74
2023/04/04 09:53:50;;;;;;;5.68;3.20;;;11.70;56.50;;;;;;7385718;19;20015;-75
2023/04/04 09:56:21;;;;;;;9.32;3.60;;;11.80;56.60;;;;;;7410244;19;20010;-74
2023/04/04 09:58:50;;;;;;;5.83;3.10;;;11.80;56.40;;;;;;7384178;19;19999;-73
2023/04/04 10:01:20;;;;;;;8.88;2.95;;;11.80;56.10;;;;;;7386946;19;20011;-75
2023/04/04 10:03:56;;;;;;;8.10;3.55;;;11.40;54.70;;;;;;7386984;19;20393;-72
2023/04/04 10:06:25;;;;;;;5.13;2.88;;;11.50;55.50;;;;;;7387063;19;20259;-72
2023/04/04 10:08:54;;;;;;;11.18;3.53;;;10.90;55.50;;;;;;7385915;19;20007;-75
2023/04/04 10:11:32;;;;;;;10.60;3.00;;;11.20;56.70;;;;;;7408228;19;20006;-79
2023/04/04 10:14:02;;;;;;;16.67;3.42;;;11.30;56.50;;;;;;7385957;19;20003;-73
2023/04/04 10:16:35;;;;;;;5.75;3.30;;;11.50;56.90;;;;;;7386991;19;20006;-72
2023/04/04 10:19:07;;;;;;;16.35;3.28;;;11.50;57.50;;;;;;7386084;19;20006;-73
2023/04/04 10:21:37;;;;;;;9.60;3.30;;;11.70;57.20;;;;;;7386512;19;20366;-73
2023/04/04 10:24:08;;;;;;;6.05;3.15;;;11.60;57.50;;;;;;7387285;19;20010;-73
2023/04/04 10:26:40;;;;;;;5.10;3.15;;;11.70;57.40;;;;;;7388895;19;20011;-79
2023/04/04 10:29:09;;;;;;;7.65;3.10;;;11.80;56.20;;;;;;7408960;19;20231;-74
2023/04/04 10:35:18;;;;;;;5.30;2.80;;;11.90;56.90;;;;;;7414127;19;20010;-82
2023/04/04 10:37:56;;;;;;;7.60;3.53;;;11.80;55.20;;;;;;7383484;19;20002;-78
2023/04/04 10:40:30;;;;;;;10.40;3.22;;;11.70;55.60;;;;;;7392043;19;20009;-77
2023/04/04 10:43:31;;;;;;;10.57;3.72;;;11.80;55.60;;;;;;7390184;19;20051;-80
2023/04/04 10:46:09;;;;;;;7.28;3.38;;;11.80;55.00;;;;;;7387999;19;20007;-76
2023/04/04 10:48:44;;;;;;;11.57;3.65;;;11.90;55.60;;;;;;7385961;19;20268;-78
2023/04/04 10:51:17;;;;;;;8.13;3.65;;;12.00;55.40;;;;;;7384899;19;20068;-77
2023/04/04 10:53:46;;;;;;;9.02;3.50;;;12.10;55.90;;;;;;7385275;19;20003;-74
2023/04/04 10:56:16;;;;;;;7.95;2.95;;;12.10;55.50;;;;;;7407083;19;20035;-74
2023/04/04 10:58:46;;;;;;;5.05;2.88;;;12.20;55.80;;;;;;7380185;19;20002;-74
2023/04/04 11:01:19;;;;;;;8.43;3.22;;;12.30;55.30;;;;;;7385227;19;20101;-75
2023/04/04 11:04:19;;;;;;;5.47;3.17;;;12.40;55.00;;;;;;7384956;19;20010;-74
2023/04/04 11:07:09;;;;;;;8.10;3.45;;;12.40;55.40;;;;;;7385156;19;20013;-74
2023/04/04 11:09:55;;;;;;;18.00;3.10;;;12.50;55.60;;;;;;7384934;19;20007;-74
2023/04/04 11:12:29;;;;;;;6.25;3.50;;;12.50;54.60;;;;;;7384781;19;20007;-74
2023/04/04 11:15:13;;;;;;;8.85;3.22;;;12.60;54.00;;;;;;7385396;19;20003;-74
2023/04/04 11:17:57;;;;;;;5.97;3.00;;;12.50;54.30;;;;;;7385008;19;20030;-74
2023/04/04 11:20:34;;;;;;;6.53;3.33;;;12.50;55.00;;;;;;7384981;19;20032;-75
2023/04/04 11:23:11;;;;;;;9.00;3.53;;;12.60;54.40;;;;;;7406295;19;20007;-75
2023/04/04 11:25:42;;;;;;;7.63;3.35;;;12.70;54.30;;;;;;7385795;19;20018;-74
2023/04/04 11:28:43;;;;;;;9.97;3.40;;;12.70;54.60;;;;;;7385958;19;20030;-74
2023/04/04 11:31:31;;;;;;;3.88;2.63;;;12.80;54.70;;;;;;7386608;19;20472;-74
2023/04/04 11:34:04;;;;;;;8.23;3.25;;;12.90;54.50;;;;;;7388053;19;20080;-73
2023/04/04 11:37:00;;;;;;;7.72;3.30;;;12.90;54.60;;;;;;7387481;19;20013;-73
2023/04/04 11:42:16;;;;;;;6.68;3.08;;;12.90;53.30;;;;;;7395696;19;20011;-77
2023/04/04 11:45:06;;;;;;;8.75;3.05;;;13.10;53.30;;;;;;7394247;19;20010;-78
2023/04/04 11:47:36;;;;;;;6.53;3.35;;;13.10;53.40;;;;;;7390571;19;20030;-78
2023/04/04 11:50:17;;;;;;;11.57;3.72;;;12.90;52.80;;;;;;7406078;19;20227;-81
2023/04/04 11:52:45;;;;;;;9.43;3.45;;;12.90;53.80;;;;;;7385479;19;20006;-79
2023/04/04 11:55:25;;;;;;;7.40;3.40;;;13.10;54.10;;;;;;7385627;19;20003;-79
2023/04/04 11:57:57;;;;;;;9.40;3.70;;;13.10;54.30;;;;;;7382771;19;20358;-76
2023/04/04 12:00:34;;;;;;;12.10;3.42;;;13.00;52.50;;;;;;7384463;19;20084;-78
2023/04/04 12:03:09;;;;;;;11.00;3.65;;;13.10;53.20;;;;;;7388183;19;19999;-81
2023/04/04 12:06:24;;;;;;;15.30;3.78;;;13.20;52.70;;;;;;7408719;19;20015;-82
2023/04/04 12:08:52;;;;;;;7.78;3.50;;;13.30;53.80;;;;;;7278668;19;2006050;-75
2023/04/04 12:11:31;;;;;;;8.77;3.70;;;13.50;54.00;;;;;;7405059;19;20390;-79
2023/04/04 12:13:59;;;;;;;10.13;3.63;;;13.60;54.40;;;;;;7383155;19;20032;-75
2023/04/04 12:16:28;;;;;;;10.85;3.85;;;13.70;55.00;;;;;;7380787;19;20019;-75
2023/04/04 12:18:58;;;;;;;5.97;3.15;;;13.80;53.40;;;;;;7380310;19;20010;-76
2023/04/04 12:21:31;;;;;;;8.00;3.03;;;13.80;53.30;;;;;;7380662;19;20308;-75
2023/04/04 12:24:00;;;;;;;7.18;3.40;;;13.90;53.20;;;;;;7381887;19;20003;-77
2023/04/04 12:26:32;;;;;;;15.48;3.35;;;14.00;53.50;;;;;;7385640;19;20010;-79
2023/04/04 12:29:02;;;;;;;7.88;3.15;;;14.00;52.70;;;;;;7410370;19;20039;-78
2023/04/04 12:31:32;;;;;;;8.05;3.35;;;14.10;53.90;;;;;;7387768;19;20010;-76
2023/04/04 12:34:01;;;;;;;6.95;4.20;;;14.20;53.90;;;;;;7384561;19;20010;-76
2023/04/04 12:36:31;;;;;;;8.68;3.60;;;14.20;53.50;;;;;;7380256;19;20006;-77
2023/04/04 12:39:04;;;;;;;8.63;3.92;;;14.40;54.00;;;;;;7380468;19;20442;-77
2023/04/04 12:41:45;;;;;;;13.70;5.32;;;14.30;53.80;;;;;;7385953;19;20007;-78
2023/04/04 12:44:26;;;;;;;8.57;4.20;;;14.40;54.80;;;;;;7407862;19;20014;-78
2023/04/04 12:46:59;;;;;;;8.18;4.00;;;14.40;52.70;;;;;;7386164;19;20030;-75
2023/04/04 12:49:31;;;;;;;9.70;3.70;;;14.40;54.20;;;;;;7386304;19;20003;-77
2023/04/04 12:52:03;;;;;;;6.75;3.53;;;14.40;52.50;;;;;;7391455;19;20011;-78
2023/04/04 12:54:33;;;;;;;7.07;3.90;;;14.30;53.00;;;;;;7386249;19;20010;-76
2023/04/04 12:57:07;;;;;;;9.27;3.55;;;14.50;53.50;;;;;;7385224;19;20353;-77
2023/04/04 12:59:38;;;;;;;6.30;3.13;;;14.50;53.00;;;;;;7381480;19;20007;-76
2023/04/04 13:02:14;;;;;;;9.68;4.10;;;14.60;53.20;;;;;;7405874;19;20059;-77
2023/04/04 13:04:46;;;;;;;7.22;3.42;;;14.70;51.90;;;;;;7383681;19;20003;-78
2023/04/04 13:07:31;;;;;;;6.72;3.70;;;14.80;52.00;;;;;;7385261;19;20018;-80
2023/04/04 13:10:02;;;;;;;8.77;3.45;;;14.80;51.80;;;;;;7386217;19;20004;-80
2023/04/04 13:12:46;;;;;;;;;;;14.80;51.90;;;;;;7386526;19;20075;-76
2023/04/04 13:15:19;;;;;;;6.05;3.20;;;15.10;51.40;;;;;;7382751;19;19911;-77